^^
Meteo Knjazevac Station Historical Data
Daily Summary for July 14, 2021 Units:  English    Metric   Both
Daily Weekly Monthly Yearly Custom
  High: Low: Average:
Temperature: 66.7 °F 58.1 °F 61.7 °F
Dew Point: 59.5 °F 55.2 °F 57.1 °F
Humidity: 90% 77% 85%
Wind Speed: 3mph 0mph 0.9mph
Wind Gust: 5mph - -
Wind- - West
Pressure: 30.25 in 30.22 in -
Precipitation: 0.00 in    
Historical Graphs
 
 
Tabular Data for July 14, 2021
Time Temperature Dew Point Pressure Wind Wind Speed Wind Gust Humidity Rainfall Rate (Hourly) solar Conditions
00:00 66.7 °F 59.3 °F 30.22 in WSW 1 mph 3 mph 77% 0.00 in 0 W/m2
00:10 66.6 °F 59.5 °F 30.22 in Calm   3 mph 78% 0.00 in 0 W/m2
00:20 66.4 °F 59.3 °F 30.22 in Calm   3 mph 78% 0.00 in 0 W/m2
00:30 66.2 °F 59.5 °F 30.22 in WSW 1 mph 2 mph 79% 0.00 in 0 W/m2
00:40 65.8 °F 59.1 °F 30.22 in Calm   1 mph 79% 0.00 in 0 W/m2
00:50 65.6 °F 58.9 °F 30.23 in Calm   2 mph 79% 0.00 in 0 W/m2
01:00 65.1 °F 58.4 °F 30.23 in Calm   1 mph 79% 0.00 in 0 W/m2
01:10 64.4 °F 58.1 °F 30.23 in Calm   2 mph 80% 0.00 in 0 W/m2
01:20 63.7 °F 57.7 °F 30.23 in WSW 1 mph 2 mph 81% 0.00 in 0 W/m2
01:30 63.3 °F 58.1 °F 30.24 in West 2 mph 5 mph 83% 0.00 in 0 W/m2
01:40 63.3 °F 58.1 °F 30.24 in Calm   3 mph 83% 0.00 in 0 W/m2
01:50 63 °F 57.7 °F 30.24 in Calm   2 mph 83% 0.00 in 0 W/m2
02:00 62.6 °F 57.4 °F 30.24 in Calm   1 mph 83% 0.00 in 0 W/m2
02:10 62.4 °F 57.5 °F 30.24 in Calm   2 mph 84% 0.00 in 0 W/m2
02:20 62.4 °F 57.5 °F 30.24 in Calm   2 mph 84% 0.00 in 0 W/m2
02:30 62.1 °F 57.2 °F 30.24 in Calm   2 mph 84% 0.00 in 0 W/m2
02:40 61.9 °F 57 °F 30.24 in WNW 1 mph 2 mph 84% 0.00 in 0 W/m2
02:50 61.3 °F 56.8 °F 30.24 in SW 1 mph 2 mph 85% 0.00 in 0 W/m2
03:00 61 °F 56.8 °F 30.24 in WNW 1 mph 2 mph 86% 0.00 in 0 W/m2
03:10 60.8 °F 56.6 °F 30.24 in West 1 mph 3 mph 86% 0.00 in 0 W/m2
03:20 60.6 °F 56.4 °F 30.24 in West 2 mph 3 mph 86% 0.00 in 0 W/m2
03:30 60.4 °F 56.9 °F 30.24 in West 1 mph 3 mph 88% 0.00 in 0 W/m2
03:40 60.4 °F 56.8 °F 30.23 in WNW 1 mph 3 mph 88% 0.00 in 0 W/m2
03:50 60.2 °F 56.6 °F 30.23 in West 1 mph 2 mph 88% 0.00 in 0 W/m2
04:00 59.9 °F 56.3 °F 30.23 in WNW 1 mph 2 mph 88% 0.00 in 0 W/m2
04:10 59.7 °F 56.2 °F 30.23 in Calm   2 mph 88% 0.00 in 0 W/m2
04:20 59.4 °F 55.8 °F 30.23 in WNW 1 mph 2 mph 88% 0.00 in 0 W/m2
04:30 59.4 °F 56.1 °F 30.24 in WNW 2 mph 3 mph 89% 0.00 in 0 W/m2
04:40 59.4 °F 56.4 °F 30.24 in West 3 mph 5 mph 90% 0.00 in 0 W/m2
04:50 59.4 °F 56.1 °F 30.24 in West 1 mph 4 mph 89% 0.00 in 0 W/m2
05:00 59.1 °F 55.9 °F 30.24 in WSW 1 mph 3 mph 89% 0.00 in 0 W/m2
05:10 58.6 °F 55.7 °F 30.24 in West 2 mph 3 mph 90% 0.00 in 0 W/m2
05:20 58.6 °F 55.7 °F 30.25 in West 2 mph 4 mph 90% 0.00 in 0 W/m2
05:30 58.6 °F 55.7 °F 30.25 in West 1 mph 4 mph 90% 0.00 in 0 W/m2
05:40 58.6 °F 55.7 °F 30.25 in WNW 1 mph 2 mph 90% 0.00 in 5 W/m2
05:50 58.4 °F 55.5 °F 30.25 in WSW 1 mph 2 mph 90% 0.00 in 12 W/m2
06:00 58.1 °F 55.2 °F 30.25 in West 2 mph 4 mph 90% 0.00 in 22 W/m2
Knjazevac, Serbia
Compliments of Weather Underground - 2 mb